Time;durP1;ratioP1;P1;durP2;ratioP2;P2;SDS_P1;SDS_P2;PMS_P1;PMS_P2;Temp;Humidity;BMP_temperature;BMP_pressure;BME280_temperature;BME280_humidity;BME280_pressure;Samples;Min_cycle;Max_cycle;Signal;HPM_P1;HPM_P2
2022/05/13 00:01:50;;;;;;;4.47;0.80;;;;;;;;;;4959002;28;20465;-87
2022/05/13 00:04:17;;;;;;;4.90;0.88;;;;;;;;;;4978847;28;20019;-87
2022/05/13 00:06:43;;;;;;;5.18;1.00;;;;;;;;;;4977364;28;20042;-87
2022/05/13 00:09:09;;;;;;;6.03;1.02;;;;;;;;;;4977161;28;20035;-87
2022/05/13 00:11:35;;;;;;;4.45;0.98;;;;;;;;;;4976617;28;20378;-87
2022/05/13 00:14:02;;;;;;;4.50;1.05;;;;;;;;;;4976438;28;20022;-86
2022/05/13 00:16:28;;;;;;;2.88;0.80;;;;;;;;;;4973668;28;20469;-86
2022/05/13 00:18:54;;;;;;;6.72;1.30;;;;;;;;;;4958826;28;20035;-86
2022/05/13 00:21:20;;;;;;;6.32;1.13;;;;;;;;;;4959153;28;20027;-86
2022/05/13 00:23:46;;;;;;;5.20;1.20;;;;;;;;;;4976299;28;20029;-87
2022/05/13 00:26:12;;;;;;;5.68;0.90;;;;;;;;;;4976316;28;20111;-87
2022/05/13 00:28:38;;;;;;;7.88;1.70;;;;;;;;;;4975318;28;20034;-87
2022/05/13 00:31:05;;;;;;;6.65;1.02;;;;;;;;;;4975892;28;20022;-86
2022/05/13 00:33:32;;;;;;;2.90;0.95;;;;;;;;;;4975839;28;20030;-87
2022/05/13 00:35:58;;;;;;;3.05;1.10;;;;;;;;;;4975406;28;20031;-85
2022/05/13 00:38:25;;;;;;;3.35;1.08;;;;;;;;;;4958513;28;20079;-86
2022/05/13 00:40:51;;;;;;;4.45;0.82;;;;;;;;;;4976670;28;20023;-87
2022/05/13 00:43:36;;;;;;;8.45;1.33;;;;;;;;;;4977708;28;20037;-86
2022/05/13 00:46:03;;;;;;;5.18;1.58;;;;;;;;;;4977772;28;20051;-86
2022/05/13 00:48:29;;;;;;;7.05;1.10;;;;;;;;;;4963093;28;20037;-86
2022/05/13 00:50:55;;;;;;;4.68;1.02;;;;;;;;;;4988922;28;20107;-85
2022/05/13 00:53:21;;;;;;;3.53;1.20;;;;;;;;;;4989612;28;20061;-86
2022/05/13 00:55:48;;;;;;;5.35;1.05;;;;;;;;;;4971883;28;20031;-86
2022/05/13 00:58:17;;;;;;;4.15;1.00;;;;;;;;;;4988089;28;20030;-86
2022/05/13 01:00:43;;;;;;;10.07;2.80;;;;;;;;;;4988334;28;20030;-86
2022/05/13 01:03:13;;;;;;;8.45;1.48;;;;;;;;;;4989065;28;20085;-85
2022/05/13 01:05:41;;;;;;;8.13;1.48;;;;;;;;;;4985557;28;20035;-85
2022/05/13 01:08:08;;;;;;;11.10;1.60;;;;;;;;;;4971001;29;20045;-86
2022/05/13 01:10:35;;;;;;;9.82;1.67;;;;;;;;;;4969911;29;20032;-85
2022/05/13 01:13:04;;;;;;;8.77;2.00;;;;;;;;;;4967882;29;20094;-86
2022/05/13 01:15:33;;;;;;;6.70;1.60;;;;;;;;;;4969205;29;20073;-86
2022/05/13 01:18:05;;;;;;;6.10;1.33;;;;;;;;;;4967860;29;20023;-86
2022/05/13 01:20:34;;;;;;;7.00;1.80;;;;;;;;;;4967447;29;20147;-85
2022/05/13 01:23:11;;;;;;;7.63;1.52;;;;;;;;;;4965778;29;20037;-85
2022/05/13 01:25:48;;;;;;;13.60;1.83;;;;;;;;;;4964663;29;20066;-85
2022/05/13 01:28:22;;;;;;;10.95;1.70;;;;;;;;;;4965422;29;20114;-86
2022/05/13 01:30:50;;;;;;;5.18;1.40;;;;;;;;;;4963604;29;20118;-86
2022/05/13 01:33:16;;;;;;;7.22;1.80;;;;;;;;;;4962244;29;20398;-86
2022/05/13 01:35:44;;;;;;;6.85;1.90;;;;;;;;;;4957780;29;20027;-86
2022/05/13 01:38:10;;;;;;;9.02;1.70;;;;;;;;;;4966002;28;20188;-86
2022/05/13 01:40:36;;;;;;;8.95;2.22;;;;;;;;;;4975098;28;20026;-87
2022/05/13 01:43:03;;;;;;;10.82;2.47;;;;;;;;;;4974827;28;20165;-87
2022/05/13 01:45:30;;;;;;;11.40;1.80;;;;;;;;;;4974448;28;20027;-87
2022/05/13 01:47:56;;;;;;;6.72;1.45;;;;;;;;;;4960861;28;20370;-85
2022/05/13 01:50:23;;;;;;;8.85;1.80;;;;;;;;;;4957483;28;20800;-87
2022/05/13 01:52:49;;;;;;;6.25;1.50;;;;;;;;;;4974141;28;20034;-87
2022/05/13 01:55:15;;;;;;;6.75;2.00;;;;;;;;;;4974351;28;20027;-87
2022/05/13 01:57:41;;;;;;;13.73;2.00;;;;;;;;;;4974080;28;20172;-75
2022/05/13 02:00:07;;;;;;;6.28;1.65;;;;;;;;;;4974654;28;20382;-87
2022/05/13 02:03:43;;;;;;;9.07;1.83;;;;;;;;;;4957650;28;20038;-87
2022/05/13 02:05:24;;;;;;;7.75;2.20;;;;;;;;;;4974116;28;20038;-87
2022/05/13 02:07:51;;;;;;;9.93;1.85;;;;;;;;;;4974050;28;20027;-87
2022/05/13 02:10:17;;;;;;;10.82;1.50;;;;;;;;;;4964245;28;20082;-87
2022/05/13 02:12:43;;;;;;;8.70;1.63;;;;;;;;;;4954820;29;20039;-87
2022/05/13 02:15:10;;;;;;;10.95;2.17;;;;;;;;;;4954806;29;20381;-87
2022/05/13 02:17:36;;;;;;;13.20;1.90;;;;;;;;;;4954634;28;20497;-87
2022/05/13 02:20:03;;;;;;;10.63;2.53;;;;;;;;;;4954903;29;20028;-87
2022/05/13 02:22:29;;;;;;;9.93;1.60;;;;;;;;;;4954649;29;20032;-86
2022/05/13 02:24:55;;;;;;;10.65;1.83;;;;;;;;;;4954677;29;20032;-86
2022/05/13 02:27:21;;;;;;;15.35;1.92;;;;;;;;;;4956742;28;20042;-87
2022/05/13 02:29:47;;;;;;;11.65;1.90;;;;;;;;;;4956528;28;20031;-87
2022/05/13 02:32:13;;;;;;;7.35;2.08;;;;;;;;;;4973762;28;20362;-87
2022/05/13 02:34:39;;;;;;;8.85;1.83;;;;;;;;;;4974004;28;20058;-87
2022/05/13 02:37:05;;;;;;;7.28;2.08;;;;;;;;;;4973511;28;20082;-86
2022/05/13 02:39:31;;;;;;;15.63;2.38;;;;;;;;;;4956245;28;20536;-87
2022/05/13 02:41:57;;;;;;;16.70;2.45;;;;;;;;;;4956294;28;20405;-87
2022/05/13 02:44:25;;;;;;;14.95;2.33;;;;;;;;;;4974772;28;20038;-87
2022/05/13 02:46:51;;;;;;;11.27;1.98;;;;;;;;;;4977701;28;20015;-87
2022/05/13 02:49:18;;;;;;;14.27;2.35;;;;;;;;;;4972852;28;20037;-87
2022/05/13 02:51:46;;;;;;;15.80;2.95;;;;;;;;;;4952711;28;20102;-87
2022/05/13 02:54:12;;;;;;;18.30;2.97;;;;;;;;;;4964848;28;20213;-87
2022/05/13 02:56:38;;;;;;;14.55;2.35;;;;;;;;;;4962003;28;20030;-86
2022/05/13 02:59:06;;;;;;;11.10;2.50;;;;;;;;;;4947423;28;20019;-87
2022/05/13 03:01:32;;;;;;;12.07;2.60;;;;;;;;;;4941647;29;20024;-87
2022/05/13 03:03:58;;;;;;;11.18;2.58;;;;;;;;;;4954476;29;20126;-87
2022/05/13 03:06:25;;;;;;;14.70;2.63;;;;;;;;;;4963711;28;20019;-86
2022/05/13 03:08:51;;;;;;;12.55;3.00;;;;;;;;;;4956174;28;20030;-86
2022/05/13 03:11:18;;;;;;;12.90;3.08;;;;;;;;;;4976448;28;20082;-86
2022/05/13 03:13:44;;;;;;;13.07;3.30;;;;;;;;;;4977016;28;20465;-87
2022/05/13 03:16:14;;;;;;;12.02;3.15;;;;;;;;;;4977161;28;20035;-87
2022/05/13 03:18:40;;;;;;;20.20;3.03;;;;;;;;;;4977028;28;20019;-86
2022/05/13 03:21:07;;;;;;;12.63;3.47;;;;;;;;;;4977370;28;20462;-87
2022/05/13 03:23:33;;;;;;;16.50;3.70;;;;;;;;;;4977104;28;20019;-87
2022/05/13 03:26:01;;;;;;;12.00;3.03;;;;;;;;;;4976899;28;20019;-86
2022/05/13 03:28:27;;;;;;;16.98;3.90;;;;;;;;;;4976799;28;20023;-87
2022/05/13 03:30:54;;;;;;;19.02;4.43;;;;;;;;;;4976820;28;20026;-86
2022/05/13 03:33:20;;;;;;;14.10;3.80;;;;;;;;;;4976930;28;20022;-87
2022/05/13 03:35:47;;;;;;;14.77;4.05;;;;;;;;;;4977104;28;20031;-87
2022/05/13 03:38:13;;;;;;;15.88;3.65;;;;;;;;;;4955829;28;20086;-87
2022/05/13 03:40:39;;;;;;;19.65;4.32;;;;;;;;;;4957486;29;20697;-87
2022/05/13 03:43:06;;;;;;;14.10;4.25;;;;;;;;;;4957244;29;20085;-87
2022/05/13 03:45:36;;;;;;;22.33;4.53;;;;;;;;;;4957436;29;20470;-87
2022/05/13 03:48:03;;;;;;;17.77;4.30;;;;;;;;;;4970283;28;20030;-87
2022/05/13 03:50:29;;;;;;;16.83;4.30;;;;;;;;;;4975701;28;20027;-86
2022/05/13 03:52:55;;;;;;;15.27;4.43;;;;;;;;;;4971988;28;20019;-87
2022/05/13 03:55:22;;;;;;;27.63;5.40;;;;;;;;;;4964584;28;20080;-87
2022/05/13 03:57:49;;;;;;;18.73;5.22;;;;;;;;;;4976627;28;20106;-86
2022/05/13 04:00:15;;;;;;;22.90;4.40;;;;;;;;;;4976606;28;20027;-87
2022/05/13 04:02:41;;;;;;;16.00;4.75;;;;;;;;;;4976270;28;20027;-87
2022/05/13 04:10:54;;;;;;;16.42;4.68;;;;;;;;;;4897369;29;20068;-87
2022/05/13 04:16:18;;;;;;;19.90;5.60;;;;;;;;;;4823540;29;20042;-87
2022/05/13 04:18:46;;;;;;;21.90;5.30;;;;;;;;;;4823622;29;20039;-87
2022/05/13 04:21:13;;;;;;;17.92;4.97;;;;;;;;;;4823666;29;20544;-87
2022/05/13 04:23:40;;;;;;;28.65;5.78;;;;;;;;;;4823539;29;20073;-87
2022/05/13 04:26:06;;;;;;;21.25;5.00;;;;;;;;;;4823855;29;20038;-87
2022/05/13 04:28:33;;;;;;;23.85;7.53;;;;;;;;;;4823454;29;20498;-87
2022/05/13 04:30:59;;;;;;;16.02;5.10;;;;;;;;;;4823302;29;20030;-87
2022/05/13 04:33:25;;;;;;;18.70;4.95;;;;;;;;;;4838437;29;20162;-86
2022/05/13 04:35:52;;;;;;;23.27;5.65;;;;;;;;;;4823165;29;20027;-87
2022/05/13 04:38:18;;;;;;;20.73;5.85;;;;;;;;;;4822995;29;20119;-87
2022/05/13 04:40:44;;;;;;;27.88;6.00;;;;;;;;;;4823098;29;20110;-87
2022/05/13 04:43:10;;;;;;;28.17;6.22;;;;;;;;;;4823142;29;20374;-87
2022/05/13 04:45:36;;;;;;;25.27;5.90;;;;;;;;;;4882723;29;20087;-87
2022/05/13 04:48:15;;;;;;;18.10;5.85;;;;;;;;;;4896950;29;20488;-87
2022/05/13 04:50:42;;;;;;;18.52;5.80;;;;;;;;;;4897187;28;20428;-86
2022/05/13 04:53:09;;;;;;;27.58;5.95;;;;;;;;;;4975126;28;20390;-86
2022/05/13 04:55:35;;;;;;;21.08;5.82;;;;;;;;;;4975209;28;20030;-86
2022/05/13 04:58:01;;;;;;;25.65;6.07;;;;;;;;;;4975032;28;20027;-88
2022/05/13 05:00:28;;;;;;;24.38;6.45;;;;;;;;;;4975107;28;20061;-85
2022/05/13 05:02:54;;;;;;;23.52;6.80;;;;;;;;;;4957499;28;20397;-86
2022/05/13 05:05:20;;;;;;;19.98;5.10;;;;;;;;;;4974061;28;20525;-86
2022/05/13 05:07:46;;;;;;;27.58;5.82;;;;;;;;;;4971316;28;20029;-86
2022/05/13 05:10:12;;;;;;;20.80;5.75;;;;;;;;;;4975742;28;20092;-76
2022/05/13 05:12:38;;;;;;;28.02;5.82;;;;;;;;;;4974485;28;20026;-85
2022/05/13 05:15:05;;;;;;;24.63;6.00;;;;;;;;;;4956402;28;20027;-86
2022/05/13 05:17:31;;;;;;;21.17;5.72;;;;;;;;;;4955406;29;20070;-86
2022/05/13 05:19:57;;;;;;;25.35;5.68;;;;;;;;;;4955627;29;20027;-86
2022/05/13 05:22:23;;;;;;;20.27;5.35;;;;;;;;;;4955311;29;20019;-86
2022/05/13 05:24:49;;;;;;;16.15;5.40;;;;;;;;;;4967307;28;20051;-86
2022/05/13 05:27:15;;;;;;;22.63;5.70;;;;;;;;;;4974544;28;20026;-86
2022/05/13 05:29:43;;;;;;;25.33;7.00;;;;;;;;;;4974271;28;20027;-86
2022/05/13 05:32:09;;;;;;;22.30;6.20;;;;;;;;;;4974125;28;20085;-86
2022/05/13 05:34:36;;;;;;;25.75;5.25;;;;;;;;;;4972385;28;20027;-85
2022/05/13 05:37:02;;;;;;;23.92;6.00;;;;;;;;;;4937675;29;20051;-86
2022/05/13 05:39:28;;;;;;;21.85;5.70;;;;;;;;;;4970320;28;20025;-86
2022/05/13 05:41:54;;;;;;;22.60;5.00;;;;;;;;;;4974383;28;20089;-86
2022/05/13 05:44:20;;;;;;;18.23;5.22;;;;;;;;;;4973987;28;20110;-85
2022/05/13 05:46:46;;;;;;;18.60;5.22;;;;;;;;;;4973895;28;20027;-86
2022/05/13 05:49:12;;;;;;;21.13;5.30;;;;;;;;;;4956677;28;20213;-86
2022/05/13 05:51:38;;;;;;;19.48;5.57;;;;;;;;;;4973670;28;20204;-86
2022/05/13 05:59:34;;;;;;;20.27;5.47;;;;;;;;;;4974433;28;20062;-86
2022/05/13 06:02:00;;;;;;;20.63;5.43;;;;;;;;;;4956803;28;20057;-86
2022/05/13 06:04:26;;;;;;;19.88;5.38;;;;;;;;;;4974160;28;20165;-85
2022/05/13 06:06:52;;;;;;;18.58;5.35;;;;;;;;;;4966074;28;20058;-86
2022/05/13 06:09:18;;;;;;;22.30;4.88;;;;;;;;;;4973993;28;20441;-86
2022/05/13 06:11:44;;;;;;;20.23;4.97;;;;;;;;;;4973747;28;20037;-87
2022/05/13 06:14:10;;;;;;;21.52;5.30;;;;;;;;;;4974126;28;20085;-85
2022/05/13 06:16:37;;;;;;;24.13;5.40;;;;;;;;;;4973819;28;20018;-86
2022/05/13 06:19:03;;;;;;;21.88;5.10;;;;;;;;;;4974041;28;20023;-84
2022/05/13 06:21:31;;;;;;;23.02;4.97;;;;;;;;;;4974169;28;20042;-86
2022/05/13 06:23:57;;;;;;;25.33;5.03;;;;;;;;;;4973842;28;20023;-86
2022/05/13 06:26:24;;;;;;;26.55;5.35;;;;;;;;;;4973903;28;20057;-87
2022/05/13 06:28:50;;;;;;;22.25;5.13;;;;;;;;;;4973999;28;20035;-87
2022/05/13 06:31:18;;;;;;;20.13;6.20;;;;;;;;;;4973904;28;20026;-86
2022/05/13 06:33:44;;;;;;;22.98;5.45;;;;;;;;;;4956864;28;20377;-87
2022/05/13 06:36:12;;;;;;;23.90;5.57;;;;;;;;;;4973660;28;20038;-87
2022/05/13 06:38:38;;;;;;;22.90;5.70;;;;;;;;;;4973548;28;20057;-87
2022/05/13 06:41:04;;;;;;;17.70;5.15;;;;;;;;;;4973949;28;20031;-88
2022/05/13 06:43:31;;;;;;;19.58;5.45;;;;;;;;;;4973942;28;20026;-87
2022/05/13 06:45:57;;;;;;;23.67;5.63;;;;;;;;;;4958969;28;20330;-87
2022/05/13 06:48:23;;;;;;;22.40;5.10;;;;;;;;;;4977811;28;20031;-87
2022/05/13 06:50:49;;;;;;;16.25;4.70;;;;;;;;;;4978023;28;20027;-86
2022/05/13 06:53:17;;;;;;;18.33;4.95;;;;;;;;;;4977326;28;20026;-86
2022/05/13 06:55:44;;;;;;;19.20;5.20;;;;;;;;;;4977495;28;20210;-87
2022/05/13 06:58:10;;;;;;;22.35;6.28;;;;;;;;;;4977345;28;20069;-87
2022/05/13 07:00:36;;;;;;;22.00;5.13;;;;;;;;;;4977420;28;20039;-87
2022/05/13 07:03:02;;;;;;;24.08;5.50;;;;;;;;;;4977606;28;20026;-85
2022/05/13 07:05:30;;;;;;;14.00;4.95;;;;;;;;;;4977713;28;20034;-87
2022/05/13 07:07:56;;;;;;;20.98;5.63;;;;;;;;;;4977532;28;20035;-87
2022/05/13 07:10:22;;;;;;;18.88;5.20;;;;;;;;;;4977105;28;20031;-88
2022/05/13 07:12:48;;;;;;;20.77;4.93;;;;;;;;;;4977239;28;20027;-87
2022/05/13 07:15:15;;;;;;;17.88;5.13;;;;;;;;;;4977221;28;20452;-87
2022/05/13 07:17:42;;;;;;;17.95;6.03;;;;;;;;;;4977118;28;20070;-87
2022/05/13 07:20:09;;;;;;;16.90;4.78;;;;;;;;;;4977206;28;20109;-87
2022/05/13 07:22:35;;;;;;;15.73;4.47;;;;;;;;;;4976964;28;20027;-88
2022/05/13 07:25:01;;;;;;;17.90;4.38;;;;;;;;;;4977153;28;20041;-87
2022/05/13 07:27:27;;;;;;;18.02;3.90;;;;;;;;;;4959730;28;20331;-87
2022/05/13 07:29:54;;;;;;;14.98;2.55;;;;;;;;;;4977195;28;20027;-86
2022/05/13 07:32:20;;;;;;;11.43;2.83;;;;;;;;;;4976853;28;20153;-86
2022/05/13 07:34:46;;;;;;;8.80;1.70;;;;;;;;;;4976982;28;20050;-85
2022/05/13 07:37:12;;;;;;;10.40;1.30;;;;;;;;;;4976420;28;20346;-86
2022/05/13 07:42:23;;;;;;;9.35;2.03;;;;;;;;;;4977057;28;20081;-81
2022/05/13 07:44:49;;;;;;;6.07;1.00;;;;;;;;;;4976531;28;20029;-84
2022/05/13 07:47:17;;;;;;;5.65;1.42;;;;;;;;;;4976590;28;20386;-84
2022/05/13 07:49:43;;;;;;;7.25;1.20;;;;;;;;;;4976466;28;20046;-84
2022/05/13 07:52:10;;;;;;;7.75;1.27;;;;;;;;;;4976357;28;20023;-85
2022/05/13 07:54:36;;;;;;;5.13;1.13;;;;;;;;;;4976555;28;20382;-86
2022/05/13 07:57:03;;;;;;;15.05;2.00;;;;;;;;;;4975799;28;20027;-84
2022/05/13 07:59:32;;;;;;;4.53;1.15;;;;;;;;;;4959037;28;20031;-84
2022/05/13 08:01:58;;;;;;;4.85;1.05;;;;;;;;;;4976462;28;20068;-85
2022/05/13 08:04:24;;;;;;;5.45;1.20;;;;;;;;;;4969315;28;20500;-84
2022/05/13 08:06:51;;;;;;;7.28;0.90;;;;;;;;;;4976251;28;20042;-83
2022/05/13 08:09:17;;;;;;;5.45;1.20;;;;;;;;;;4976248;28;20041;-85
2022/05/13 08:11:44;;;;;;;8.52;1.08;;;;;;;;;;4975997;28;20486;-84
2022/05/13 08:14:11;;;;;;;9.50;1.40;;;;;;;;;;4976006;28;20092;-84
2022/05/13 08:16:37;;;;;;;9.32;1.10;;;;;;;;;;4972603;28;20019;-80
2022/05/13 08:19:04;;;;;;;9.43;1.10;;;;;;;;;;4956651;29;20023;-85
2022/05/13 08:21:30;;;;;;;9.00;2.05;;;;;;;;;;4955786;29;20027;-84
2022/05/13 08:23:56;;;;;;;6.47;1.20;;;;;;;;;;4955976;29;20038;-84
2022/05/13 08:26:23;;;;;;;5.40;1.40;;;;;;;;;;4955869;29;20027;-89
2022/05/13 08:28:49;;;;;;;5.63;1.15;;;;;;;;;;4956319;29;20363;-85
2022/05/13 08:31:15;;;;;;;6.00;1.13;;;;;;;;;;4958157;28;20037;-84
2022/05/13 08:33:41;;;;;;;7.65;1.20;;;;;;;;;;4975273;28;20093;-83
2022/05/13 08:36:08;;;;;;;9.75;1.20;;;;;;;;;;4975299;28;20035;-83
2022/05/13 08:38:36;;;;;;;10.15;1.92;;;;;;;;;;4958052;28;20051;-84
2022/05/13 08:41:13;;;;;;;8.18;1.05;;;;;;;;;;4975441;28;20027;-83
2022/05/13 08:44:01;;;;;;;6.75;1.20;;;;;;;;;;4975544;28;20140;-84
2022/05/13 08:46:42;;;;;;;7.72;1.25;;;;;;;;;;4958010;28;20030;-84
2022/05/13 08:49:26;;;;;;;5.70;0.93;;;;;;;;;;4956465;29;20060;-84
2022/05/13 08:51:55;;;;;;;4.72;1.60;;;;;;;;;;4943968;28;20034;-83
2022/05/13 08:54:23;;;;;;;9.13;1.13;;;;;;;;;;4975500;28;20387;-86
2022/05/13 08:56:51;;;;;;;8.20;1.15;;;;;;;;;;4975239;28;20046;-83
2022/05/13 08:59:35;;;;;;;16.02;1.30;;;;;;;;;;4975315;28;20031;-85
2022/05/13 09:02:04;;;;;;;6.00;1.08;;;;;;;;;;4975185;28;20027;-81
2022/05/13 09:04:35;;;;;;;10.82;1.33;;;;;;;;;;4975004;28;20046;-80
2022/05/13 09:07:03;;;;;;;4.72;1.60;;;;;;;;;;4974558;28;20035;-79
2022/05/13 09:09:29;;;;;;;9.57;1.10;;;;;;;;;;4974710;28;20030;-81
2022/05/13 09:11:55;;;;;;;14.32;1.30;;;;;;;;;;4975217;28;20115;-83
2022/05/13 09:14:29;;;;;;;17.85;2.35;;;;;;;;;;4957441;28;20511;-81
2022/05/13 09:17:18;;;;;;;11.82;1.75;;;;;;;;;;4975176;28;20033;-85
2022/05/13 09:19:53;;;;;;;5.65;0.95;;;;;;;;;;4896536;29;20028;-83
2022/05/13 09:22:19;;;;;;;6.57;1.10;;;;;;;;;;4896675;29;20394;-80
2022/05/13 09:24:45;;;;;;;9.88;1.23;;;;;;;;;;4896161;29;20552;-81
2022/05/13 09:27:12;;;;;;;4.90;1.23;;;;;;;;;;4896636;29;20072;-81
2022/05/13 09:29:42;;;;;;;9.15;0.90;;;;;;;;;;4880996;29;20039;-79
2022/05/13 09:32:13;;;;;;;3.53;1.02;;;;;;;;;;4895574;29;20075;-80
2022/05/13 09:34:47;;;;;;;9.70;1.30;;;;;;;;;;4895420;29;20559;-80
2022/05/13 09:37:18;;;;;;;5.93;1.75;;;;;;;;;;4899940;29;20036;-80
2022/05/13 09:39:45;;;;;;;6.33;1.03;;;;;;;;;;4897694;29;20040;-79
2022/05/13 09:42:18;;;;;;;5.45;0.98;;;;;;;;;;4915018;29;20072;-82
2022/05/13 09:44:45;;;;;;;5.70;1.00;;;;;;;;;;4915066;29;20051;-80
2022/05/13 09:47:13;;;;;;;8.20;1.30;;;;;;;;;;4896941;29;20080;-78
2022/05/13 09:49:40;;;;;;;5.75;1.40;;;;;;;;;;4894447;29;20452;-77
2022/05/13 09:52:11;;;;;;;8.23;1.27;;;;;;;;;;4892129;29;20488;-78
2022/05/13 09:54:39;;;;;;;6.78;1.33;;;;;;;;;;4878927;29;20025;-78
2022/05/13 09:57:07;;;;;;;15.30;1.48;;;;;;;;;;4933601;29;20471;-77
2022/05/13 09:59:39;;;;;;;6.70;1.40;;;;;;;;;;4952081;29;20019;-77
2022/05/13 10:02:14;;;;;;;15.80;1.17;;;;;;;;;;4954041;28;20031;-77
2022/05/13 10:04:40;;;;;;;9.75;1.25;;;;;;;;;;4953985;29;20078;-75
2022/05/13 10:07:08;;;;;;;2.88;1.00;;;;;;;;;;4953779;29;20165;-77
2022/05/13 10:15:26;;;;;;;5.05;1.15;;;;;;;;;;4954212;29;20500;-77
2022/05/13 10:17:55;;;;;;;6.80;1.08;;;;;;;;;;4951590;28;20473;-76
2022/05/13 10:20:27;;;;;;;9.75;1.67;;;;;;;;;;4955280;28;20019;-77
2022/05/13 10:23:19;;;;;;;8.80;1.73;;;;;;;;;;4956034;29;20034;-74
2022/05/13 10:25:49;;;;;;;12.93;1.77;;;;;;;;;;4954113;29;20054;-74
2022/05/13 10:28:19;;;;;;;9.38;1.70;;;;;;;;;;4955954;29;20117;-75
2022/05/13 10:30:45;;;;;;;9.52;1.88;;;;;;;;;;4957116;28;20039;-76
2022/05/13 10:33:11;;;;;;;9.82;1.38;;;;;;;;;;4957123;29;20086;-75
2022/05/13 10:35:46;;;;;;;4.90;1.63;;;;;;;;;;4957381;28;20027;-75
2022/05/13 10:38:12;;;;;;;5.65;1.30;;;;;;;;;;4962773;28;20065;-75
2022/05/13 10:40:42;;;;;;;5.82;1.73;;;;;;;;;;4958856;28;20029;-75
2022/05/13 10:43:15;;;;;;;6.68;1.40;;;;;;;;;;4973889;28;20354;-75
2022/05/13 10:45:42;;;;;;;3.83;1.60;;;;;;;;;;4976098;28;20053;-75
2022/05/13 10:48:11;;;;;;;5.93;1.33;;;;;;;;;;4976170;28;20497;-75
2022/05/13 10:50:41;;;;;;;6.28;1.10;;;;;;;;;;4958753;28;20109;-75
2022/05/13 10:53:07;;;;;;;7.00;1.23;;;;;;;;;;4973752;28;20023;-76
2022/05/13 10:55:51;;;;;;;5.40;1.30;;;;;;;;;;4975889;28;20442;-75
2022/05/13 10:58:36;;;;;;;4.28;1.08;;;;;;;;;;4969395;28;20033;-76
2022/05/13 11:01:05;;;;;;;8.05;1.00;;;;;;;;;;4969568;28;20508;-74
2022/05/13 11:03:51;;;;;;;9.15;1.20;;;;;;;;;;4948488;28;20059;-74
2022/05/13 11:06:46;;;;;;;5.45;1.58;;;;;;;;;;4957323;28;20034;-75
2022/05/13 11:09:21;;;;;;;5.45;1.00;;;;;;;;;;4972902;28;20792;-75
2022/05/13 11:11:48;;;;;;;5.43;1.25;;;;;;;;;;4964966;28;20031;-74
2022/05/13 11:14:20;;;;;;;9.18;1.40;;;;;;;;;;4966006;28;20019;-75
2022/05/13 11:16:54;;;;;;;6.40;1.42;;;;;;;;;;4972688;28;20147;-76
2022/05/13 11:19:20;;;;;;;6.28;1.15;;;;;;;;;;4975641;28;20019;-76
2022/05/13 11:22:04;;;;;;;6.55;0.82;;;;;;;;;;4972647;28;20121;-75
2022/05/13 11:27:42;;;;;;;5.30;1.15;;;;;;;;;;4975791;28;20042;-75
2022/05/13 11:30:11;;;;;;;4.63;1.20;;;;;;;;;;4877695;29;20033;-75
2022/05/13 11:32:44;;;;;;;3.65;0.90;;;;;;;;;;4878225;29;20116;-78
2022/05/13 11:35:19;;;;;;;7.75;1.30;;;;;;;;;;4878931;29;20534;-79
2022/05/13 11:37:46;;;;;;;6.55;1.10;;;;;;;;;;4878429;29;20067;-79
2022/05/13 11:40:28;;;;;;;6.45;1.13;;;;;;;;;;4879301;29;20029;-80
2022/05/13 11:43:18;;;;;;;2.88;1.00;;;;;;;;;;4879121;29;20034;-80
2022/05/13 11:46:00;;;;;;;2.80;1.17;;;;;;;;;;4878996;29;20037;-79
2022/05/13 11:48:28;;;;;;;4.57;0.90;;;;;;;;;;4879031;29;20045;-80
2022/05/13 11:51:15;;;;;;;3.20;1.00;;;;;;;;;;4878265;29;20136;-79
2022/05/13 11:53:44;;;;;;;5.90;1.10;;;;;;;;;;4878628;29;20045;-80
2022/05/13 11:56:16;;;;;;;5.20;1.10;;;;;;;;;;4878779;29;20456;-80
2022/05/13 11:58:45;;;;;;;3.97;1.00;;;;;;;;;;4879127;29;20104;-80
2022/05/13 12:01:12;;;;;;;7.35;1.50;;;;;;;;;;4879016;29;20041;-80
2022/05/13 12:03:39;;;;;;;6.45;1.20;;;;;;;;;;4878875;29;20040;-80
2022/05/13 12:06:10;;;;;;;10.85;1.50;;;;;;;;;;4893801;28;20066;-80
2022/05/13 12:08:36;;;;;;;6.63;1.15;;;;;;;;;;4976068;28;20524;-80
2022/05/13 12:11:02;;;;;;;6.70;1.15;;;;;;;;;;4958541;28;20027;-80
2022/05/13 12:13:28;;;;;;;5.32;1.20;;;;;;;;;;4958568;28;20493;-80
2022/05/13 12:16:08;;;;;;;5.30;1.30;;;;;;;;;;4958631;28;20031;-80
2022/05/13 12:18:34;;;;;;;7.18;1.40;;;;;;;;;;4956354;28;20492;-79
2022/05/13 12:21:22;;;;;;;5.35;1.30;;;;;;;;;;4957029;29;20038;-78
2022/05/13 12:23:56;;;;;;;6.07;1.20;;;;;;;;;;4957223;29;20098;-79
2022/05/13 12:26:24;;;;;;;7.97;1.35;;;;;;;;;;4956705;29;20439;-78
2022/05/13 12:28:56;;;;;;;3.55;1.30;;;;;;;;;;4956929;29;20067;-79
2022/05/13 12:31:25;;;;;;;9.02;1.55;;;;;;;;;;4957059;29;20023;-79
2022/05/13 12:37:33;;;;;;;11.27;1.83;;;;;;;;;;4956632;29;20548;-79
2022/05/13 12:39:53;;;;;;;12.73;2.33;;;;;;;;;;4937532;29;20055;-79
2022/05/13 12:42:38;;;;;;;7.18;1.30;;;;;;;;;;4937352;29;20075;-78
2022/05/13 12:45:05;;;;;;;4.25;1.52;;;;;;;;;;4937051;29;20079;-79
2022/05/13 12:47:51;;;;;;;4.50;1.13;;;;;;;;;;4936548;29;20114;-79
2022/05/13 12:50:40;;;;;;;6.38;1.10;;;;;;;;;;4941100;29;20103;-82
2022/05/13 12:53:25;;;;;;;5.13;1.15;;;;;;;;;;4880106;29;20757;-77
2022/05/13 12:55:51;;;;;;;10.98;1.30;;;;;;;;;;4880364;29;20036;-76
2022/05/13 12:58:19;;;;;;;11.98;1.20;;;;;;;;;;4895555;29;20548;-76
2022/05/13 13:00:46;;;;;;;6.97;1.40;;;;;;;;;;4880168;29;20045;-76
2022/05/13 13:03:14;;;;;;;8.18;1.40;;;;;;;;;;4895773;29;20021;-76
2022/05/13 13:05:42;;;;;;;10.15;1.67;;;;;;;;;;4895544;29;20065;-76
2022/05/13 13:08:24;;;;;;;8.40;0.98;;;;;;;;;;4895769;29;20105;-75
2022/05/13 13:11:08;;;;;;;5.05;0.88;;;;;;;;;;4891311;29;20044;-76
2022/05/13 13:13:37;;;;;;;8.73;0.80;;;;;;;;;;4895538;29;20025;-76
2022/05/13 13:16:08;;;;;;;12.20;1.30;;;;;;;;;;4894822;29;20028;-76
2022/05/13 13:18:37;;;;;;;9.30;1.30;;;;;;;;;;4895049;29;20318;-76
2022/05/13 13:21:09;;;;;;;5.90;1.25;;;;;;;;;;4895375;29;20028;-76
2022/05/13 13:23:42;;;;;;;5.45;1.00;;;;;;;;;;4890244;29;20031;-77
2022/05/13 13:26:10;;;;;;;7.95;1.30;;;;;;;;;;4878942;29;20033;-79
2022/05/13 13:28:39;;;;;;;6.75;1.38;;;;;;;;;;4879092;29;20119;-78
2022/05/13 13:31:10;;;;;;;5.65;1.50;;;;;;;;;;4928692;29;20379;-79
2022/05/13 13:33:44;;;;;;;9.57;1.52;;;;;;;;;;4932513;29;20024;-78
2022/05/13 13:36:12;;;;;;;6.63;1.40;;;;;;;;;;4935668;29;20035;-78
2022/05/13 13:38:39;;;;;;;11.10;1.17;;;;;;;;;;4943135;28;20039;-78
2022/05/13 13:41:05;;;;;;;9.30;1.60;;;;;;;;;;4954751;29;20054;-78
2022/05/13 13:43:34;;;;;;;3.65;1.17;;;;;;;;;;4953316;29;20077;-77
2022/05/13 13:46:15;;;;;;;9.43;1.35;;;;;;;;;;4952846;29;20381;-78
2022/05/13 13:48:42;;;;;;;12.18;1.48;;;;;;;;;;4952320;29;20421;-79
2022/05/13 13:51:15;;;;;;;5.65;1.20;;;;;;;;;;4954159;28;20537;-77
2022/05/13 13:53:42;;;;;;;3.55;0.90;;;;;;;;;;4952342;28;20065;-77
2022/05/13 13:56:10;;;;;;;7.85;1.35;;;;;;;;;;4954300;29;20030;-79
2022/05/13 13:58:36;;;;;;;7.60;1.27;;;;;;;;;;4954723;28;20031;-78
2022/05/13 14:01:17;;;;;;;10.82;2.00;;;;;;;;;;4954512;29;20038;-78
2022/05/13 14:03:44;;;;;;;11.82;1.95;;;;;;;;;;4952958;29;20027;-77
2022/05/13 14:06:19;;;;;;;6.53;1.40;;;;;;;;;;4954311;28;20089;-78
2022/05/13 14:08:49;;;;;;;7.15;1.10;;;;;;;;;;4954521;28;20055;-77
2022/05/13 14:11:17;;;;;;;7.28;1.42;;;;;;;;;;4953979;28;20180;-77
2022/05/13 14:13:45;;;;;;;10.07;1.50;;;;;;;;;;4954118;28;20023;-76
2022/05/13 14:16:13;;;;;;;6.20;1.40;;;;;;;;;;4953750;28;20106;-76
2022/05/13 14:18:39;;;;;;;6.93;1.35;;;;;;;;;;4947522;29;20035;-76
2022/05/13 14:21:25;;;;;;;5.95;1.50;;;;;;;;;;4953618;29;20568;-76
2022/05/13 14:24:01;;;;;;;6.30;1.25;;;;;;;;;;4953662;28;20042;-76
2022/05/13 14:26:28;;;;;;;8.02;1.40;;;;;;;;;;4950984;28;20503;-76
2022/05/13 14:28:55;;;;;;;5.97;1.20;;;;;;;;;;4953648;28;20172;-76
2022/05/13 14:31:24;;;;;;;9.82;1.58;;;;;;;;;;4953055;29;20845;-77
2022/05/13 14:33:54;;;;;;;5.22;1.52;;;;;;;;;;4952174;28;20031;-76
2022/05/13 14:36:23;;;;;;;6.13;1.55;;;;;;;;;;4953288;28;20406;-76
2022/05/13 14:41:49;;;;;;;13.63;2.55;;;;;;;;;;4973022;28;20085;-75
2022/05/13 14:44:16;;;;;;;7.75;1.70;;;;;;;;;;4955340;28;20094;-76
2022/05/13 14:46:54;;;;;;;10.57;1.55;;;;;;;;;;4955236;28;20038;-76
2022/05/13 14:49:31;;;;;;;8.30;1.75;;;;;;;;;;4972016;28;20023;-75
2022/05/13 14:51:57;;;;;;;9.73;1.80;;;;;;;;;;4971101;28;20433;-75
2022/05/13 14:54:25;;;;;;;8.10;1.90;;;;;;;;;;4972543;28;20110;-77
2022/05/13 14:56:56;;;;;;;11.80;2.83;;;;;;;;;;4972966;28;20085;-75
2022/05/13 14:59:36;;;;;;;6.23;1.90;;;;;;;;;;4972659;28;20039;-75
2022/05/13 15:02:03;;;;;;;6.97;2.10;;;;;;;;;;4972419;28;20250;-77
2022/05/13 15:04:35;;;;;;;11.95;2.70;;;;;;;;;;4950805;28;20027;-78
2022/05/13 15:07:01;;;;;;;;;;;;;;;;;;4968205;28;20041;-77
2022/05/13 15:09:29;;;;;;;11.80;3.78;;;;;;;;;;4972152;28;19945;-78
2022/05/13 15:11:58;;;;;;;11.63;2.55;;;;;;;;;;4958274;28;20450;-78
2022/05/13 15:14:25;;;;;;;5.88;2.28;;;;;;;;;;4954402;28;20035;-76
2022/05/13 15:16:51;;;;;;;5.65;1.80;;;;;;;;;;4973424;28;20035;-77
2022/05/13 15:19:25;;;;;;;6.60;2.47;;;;;;;;;;4965322;28;20078;-76
2022/05/13 15:22:05;;;;;;;8.00;2.40;;;;;;;;;;4962983;28;20023;-76